createdAt,value
2022-08-11T00:00:03.906Z,11.250000
2022-08-11T00:01:00.456Z,11.250000
2022-08-11T00:02:00.730Z,0.000000
2022-08-11T00:03:00.597Z,0.000000
2022-08-11T00:04:00.558Z,0.000000
2022-08-11T00:05:03.283Z,0.000000
2022-08-11T00:06:00.746Z,0.000000
2022-08-11T00:07:00.484Z,56.250000
2022-08-11T00:08:00.579Z,56.250000
2022-08-11T00:09:00.545Z,56.250000
2022-08-11T00:10:03.710Z,0.000000
2022-08-11T00:11:00.512Z,0.000000
2022-08-11T00:12:00.597Z,0.000000
2022-08-11T00:13:00.520Z,0.000000
2022-08-11T00:14:00.737Z,0.000000
2022-08-11T00:15:03.402Z,0.000000
2022-08-11T00:16:00.624Z,0.000000
2022-08-11T00:17:00.569Z,45.000000
2022-08-11T00:18:00.633Z,45.000000
2022-08-11T00:19:00.577Z,45.000000
2022-08-11T00:20:14.239Z,0.000000
2022-08-11T00:21:00.601Z,0.000000
2022-08-11T00:22:05.070Z,0.000000
2022-08-11T00:23:00.609Z,0.000000
2022-08-11T00:24:00.687Z,0.000000
2022-08-11T00:25:03.354Z,0.000000
2022-08-11T00:26:00.720Z,0.000000
2022-08-11T00:27:00.641Z,0.000000
2022-08-11T00:28:00.703Z,0.000000
2022-08-11T00:29:00.638Z,0.000000
2022-08-11T00:30:03.936Z,0.000000
2022-08-11T00:31:00.650Z,0.000000
2022-08-11T00:32:00.734Z,0.000000
2022-08-11T00:33:00.661Z,0.000000
2022-08-11T00:34:00.759Z,0.000000
2022-08-11T00:35:51.480Z,0.000000
2022-08-11T00:36:00.756Z,0.000000
2022-08-11T00:37:00.698Z,0.000000
2022-08-11T00:38:00.799Z,78.750000
2022-08-11T00:39:00.706Z,78.750000
2022-08-11T00:40:04.114Z,0.000000
2022-08-11T00:41:00.711Z,0.000000
2022-08-11T00:42:00.797Z,0.000000
2022-08-11T00:43:00.741Z,0.000000
2022-08-11T00:44:00.814Z,0.000000
2022-08-11T00:45:04.046Z,101.250000
2022-08-11T00:46:00.818Z,101.250000
2022-08-11T00:47:00.770Z,0.000000
2022-08-11T00:48:00.845Z,0.000000
2022-08-11T00:49:00.765Z,0.000000
2022-08-11T00:50:03.983Z,0.000000
2022-08-11T00:51:00.805Z,0.000000
2022-08-11T00:52:05.702Z,0.000000
2022-08-11T00:53:00.819Z,0.000000
2022-08-11T00:54:00.996Z,0.000000
2022-08-11T00:55:05.064Z,0.000000
2022-08-11T00:56:00.880Z,0.000000
2022-08-11T00:57:00.837Z,0.000000
2022-08-11T00:58:00.888Z,0.000000
2022-08-11T00:59:00.845Z,0.000000
2022-08-11T01:00:04.027Z,11.250000
2022-08-11T01:01:00.945Z,11.250000
2022-08-11T01:02:00.915Z,11.250000
2022-08-11T01:03:00.869Z,56.250000
2022-08-11T01:04:00.931Z,56.250000
2022-08-11T01:05:03.895Z,33.750000
2022-08-11T01:06:00.949Z,33.750000
2022-08-11T01:07:00.896Z,33.750000
2022-08-11T01:08:03.265Z,0.000000
2022-08-11T01:09:00.910Z,0.000000
2022-08-11T01:10:07.273Z,0.000000
2022-08-11T01:11:00.906Z,0.000000
2022-08-11T01:12:00.970Z,0.000000
2022-08-11T01:13:00.953Z,11.250000
2022-08-11T01:14:00.962Z,11.250000
2022-08-11T01:15:03.648Z,0.000000
2022-08-11T01:16:00.982Z,0.000000
2022-08-11T01:17:00.952Z,0.000000
2022-08-11T01:18:01.015Z,0.000000
2022-08-11T01:19:00.978Z,0.000000
2022-08-11T01:20:45.475Z,0.000000
2022-08-11T01:21:00.982Z,0.000000
2022-08-11T01:22:01.033Z,0.000000
2022-08-11T01:23:00.975Z,11.250000
2022-08-11T01:24:01.060Z,11.250000
2022-08-11T01:25:03.783Z,0.000000
2022-08-11T01:26:01.081Z,0.000000
2022-08-11T01:27:01.043Z,0.000000
2022-08-11T01:28:01.067Z,0.000000
2022-08-11T01:29:01.023Z,0.000000
2022-08-11T01:30:04.468Z,0.000000
2022-08-11T01:31:01.028Z,0.000000
2022-08-11T01:32:01.086Z,0.000000
2022-08-11T01:33:01.067Z,0.000000
2022-08-11T01:34:01.107Z,0.000000
2022-08-11T01:35:03.765Z,0.000000
2022-08-11T01:36:01.172Z,11.250000
2022-08-11T01:37:01.081Z,11.250000
2022-08-11T01:38:01.150Z,11.250000
2022-08-11T01:39:01.098Z,11.250000
2022-08-11T01:40:04.909Z,11.250000
2022-08-11T01:41:01.150Z,0.000000
2022-08-11T01:42:01.383Z,0.000000
2022-08-11T01:43:01.125Z,0.000000
2022-08-11T01:44:01.189Z,0.000000
2022-08-11T01:45:12.299Z,0.000000
2022-08-11T01:46:01.208Z,0.000000
2022-08-11T01:47:01.144Z,0.000000
2022-08-11T01:48:00.268Z,0.000000
2022-08-11T01:49:00.157Z,0.000000
2022-08-11T01:50:06.855Z,0.000000
2022-08-11T01:51:00.186Z,0.000000
2022-08-11T01:52:00.252Z,0.000000
2022-08-11T01:53:00.187Z,0.000000
2022-08-11T01:54:00.777Z,0.000000
2022-08-11T01:55:03.032Z,0.000000
2022-08-11T01:56:00.279Z,0.000000
2022-08-11T01:57:00.279Z,0.000000
2022-08-11T01:58:00.286Z,0.000000
2022-08-11T01:59:00.240Z,0.000000
2022-08-11T02:00:03.739Z,0.000000
2022-08-11T02:01:00.328Z,0.000000
2022-08-11T02:02:00.343Z,0.000000
2022-08-11T02:03:00.294Z,0.000000
2022-08-11T02:04:00.361Z,22.500000
2022-08-11T02:05:02.989Z,22.500000
2022-08-11T02:06:00.421Z,33.750000
2022-08-11T02:07:00.317Z,33.750000
2022-08-11T02:08:00.762Z,45.000000
2022-08-11T02:09:00.342Z,45.000000
2022-08-11T02:10:03.580Z,45.000000
2022-08-11T02:11:00.343Z,0.000000
2022-08-11T02:12:00.796Z,0.000000
2022-08-11T02:13:00.370Z,0.000000
2022-08-11T02:14:00.419Z,0.000000
2022-08-11T02:15:05.261Z,0.000000
2022-08-11T02:16:00.749Z,0.000000
2022-08-11T02:17:00.380Z,0.000000
2022-08-11T02:18:00.476Z,0.000000
2022-08-11T02:19:00.398Z,0.000000
2022-08-11T02:20:03.618Z,0.000000
2022-08-11T02:21:00.423Z,0.000000
2022-08-11T02:22:00.467Z,0.000000
2022-08-11T02:23:00.416Z,0.000000
2022-08-11T02:24:07.326Z,33.750000
2022-08-11T02:25:03.151Z,33.750000
2022-08-11T02:26:00.504Z,22.500000
2022-08-11T02:27:00.459Z,22.500000
2022-08-11T02:28:00.515Z,33.750000
2022-08-11T02:29:00.483Z,33.750000
2022-08-11T02:30:03.644Z,33.750000
2022-08-11T02:31:00.474Z,33.750000
2022-08-11T02:32:24.175Z,33.750000
2022-08-11T02:33:00.491Z,33.750000
2022-08-11T02:34:00.767Z,22.500000
2022-08-11T02:35:04.075Z,22.500000
2022-08-11T02:36:00.609Z,0.000000
2022-08-11T02:37:00.525Z,0.000000
2022-08-11T02:38:00.766Z,0.000000
2022-08-11T02:39:00.546Z,0.000000
2022-08-11T02:40:03.642Z,0.000000
2022-08-11T02:41:00.545Z,0.000000
2022-08-11T02:42:00.783Z,0.000000
2022-08-11T02:43:00.556Z,0.000000
2022-08-11T02:44:00.626Z,33.750000
2022-08-11T02:45:04.726Z,33.750000
2022-08-11T02:46:00.756Z,90.000000
2022-08-11T02:47:00.584Z,90.000000
2022-08-11T02:48:00.684Z,11.250000
2022-08-11T02:49:00.595Z,11.250000
2022-08-11T02:50:07.252Z,11.250000
2022-08-11T02:51:00.626Z,11.250000
2022-08-11T02:52:00.691Z,0.000000
2022-08-11T02:53:00.625Z,0.000000
2022-08-11T02:54:00.806Z,56.250000
2022-08-11T02:55:03.560Z,56.250000
2022-08-11T02:56:00.703Z,56.250000
2022-08-11T02:57:00.652Z,45.000000
2022-08-11T02:58:00.770Z,45.000000
2022-08-11T02:59:00.658Z,22.500000
2022-08-11T03:00:04.086Z,22.500000
2022-08-11T03:01:00.708Z,45.000000
2022-08-11T03:02:04.967Z,45.000000
2022-08-11T03:03:00.717Z,45.000000
2022-08-11T03:04:00.776Z,11.250000
2022-08-11T03:05:03.507Z,11.250000
2022-08-11T03:06:00.808Z,11.250000
2022-08-11T03:07:00.713Z,11.250000
2022-08-11T03:08:00.792Z,11.250000
2022-08-11T03:09:00.745Z,33.750000
2022-08-11T03:10:04.053Z,33.750000
2022-08-11T03:11:00.744Z,33.750000
2022-08-11T03:12:00.851Z,22.500000
2022-08-11T03:13:00.762Z,22.500000
2022-08-11T03:14:00.829Z,22.500000
2022-08-11T03:15:03.601Z,0.000000
2022-08-11T03:16:00.839Z,0.000000
2022-08-11T03:17:00.794Z,0.000000
2022-08-11T03:18:00.898Z,0.000000
2022-08-11T03:19:00.814Z,0.000000
2022-08-11T03:20:05.773Z,0.000000
2022-08-11T03:21:00.836Z,0.000000
2022-08-11T03:22:02.271Z,56.250000
2022-08-11T03:23:00.836Z,56.250000
2022-08-11T03:24:00.950Z,33.750000
2022-08-11T03:25:03.651Z,33.750000
2022-08-11T03:26:00.906Z,33.750000
2022-08-11T03:27:00.872Z,22.500000
2022-08-11T03:28:02.799Z,22.500000
2022-08-11T03:29:00.874Z,22.500000
2022-08-11T03:30:04.711Z,0.000000
2022-08-11T03:31:00.906Z,0.000000
2022-08-11T03:32:00.989Z,0.000000
2022-08-11T03:33:00.953Z,0.000000
2022-08-11T03:34:05.668Z,0.000000
2022-08-11T03:35:03.690Z,0.000000
2022-08-11T03:36:01.007Z,0.000000
2022-08-11T03:37:16.362Z,0.000000
2022-08-11T03:38:00.990Z,0.000000
2022-08-11T03:39:00.953Z,0.000000
2022-08-11T03:40:04.221Z,0.000000
2022-08-11T03:41:00.956Z,0.000000
2022-08-11T03:42:04.015Z,0.000000
2022-08-11T03:43:00.981Z,22.500000
2022-08-11T03:44:01.027Z,22.500000
2022-08-11T03:45:03.904Z,33.750000
2022-08-11T03:46:01.093Z,33.750000
2022-08-11T03:47:00.984Z,22.500000
2022-08-11T03:48:01.082Z,22.500000
2022-08-11T03:49:01.023Z,22.500000
2022-08-11T03:50:04.651Z,0.000000
2022-08-11T03:51:01.033Z,0.000000
2022-08-11T03:52:01.078Z,0.000000
2022-08-11T03:53:01.041Z,0.000000
2022-08-11T03:54:01.132Z,0.000000
2022-08-11T03:55:03.867Z,0.000000
2022-08-11T03:56:01.109Z,0.000000
2022-08-11T03:57:01.084Z,0.000000
2022-08-11T03:58:01.106Z,0.000000
2022-08-11T03:59:01.068Z,0.000000
2022-08-11T04:00:04.701Z,0.000000
2022-08-11T04:01:01.095Z,0.000000
2022-08-11T04:02:02.228Z,0.000000
2022-08-11T04:03:01.111Z,45.000000
2022-08-11T04:04:02.005Z,45.000000
2022-08-11T04:05:03.795Z,67.500000
2022-08-11T04:06:01.553Z,67.500000
2022-08-11T04:07:01.148Z,0.000000
2022-08-11T04:08:02.087Z,0.000000
2022-08-11T04:09:01.161Z,0.000000
2022-08-11T04:10:04.692Z,0.000000
2022-08-11T04:11:00.162Z,0.000000
2022-08-11T04:12:00.234Z,0.000000
2022-08-11T04:13:00.176Z,0.000000
2022-08-11T04:14:00.248Z,0.000000
2022-08-11T04:15:03.151Z,78.750000
2022-08-11T04:16:00.453Z,78.750000
2022-08-11T04:17:00.189Z,78.750000
2022-08-11T04:18:00.305Z,78.750000
2022-08-11T04:19:00.199Z,0.000000
2022-08-11T04:20:03.530Z,0.000000
2022-08-11T04:21:00.226Z,0.000000
2022-08-11T04:22:00.317Z,0.000000
2022-08-11T04:23:00.223Z,0.000000
2022-08-11T04:24:35.917Z,0.000000
2022-08-11T04:25:03.809Z,56.250000
2022-08-11T04:26:00.317Z,56.250000
2022-08-11T04:27:01.945Z,78.750000
2022-08-11T04:28:00.342Z,78.750000
2022-08-11T04:29:00.251Z,78.750000
2022-08-11T04:30:05.760Z,0.000000
2022-08-11T04:31:00.279Z,0.000000
2022-08-11T04:32:00.384Z,0.000000
2022-08-11T04:33:00.323Z,11.250000
2022-08-11T04:34:00.417Z,11.250000
2022-08-11T04:35:03.425Z,78.750000
2022-08-11T04:36:00.430Z,78.750000
2022-08-11T04:37:00.345Z,78.750000
2022-08-11T04:38:00.434Z,22.500000
2022-08-11T04:39:00.354Z,22.500000
2022-08-11T04:40:04.802Z,78.750000
2022-08-11T04:41:00.375Z,78.750000
2022-08-11T04:42:00.463Z,101.250000
2022-08-11T04:43:00.378Z,101.250000
2022-08-11T04:44:05.411Z,101.250000
2022-08-11T04:45:03.288Z,11.250000
2022-08-11T04:46:00.612Z,11.250000
2022-08-11T04:47:00.431Z,11.250000
2022-08-11T04:48:04.085Z,101.250000
2022-08-11T04:49:00.435Z,101.250000
2022-08-11T04:50:03.614Z,56.250000
2022-08-11T04:51:08.680Z,56.250000
2022-08-11T04:52:00.558Z,56.250000
2022-08-11T04:53:00.456Z,0.000000
2022-08-11T04:54:00.575Z,0.000000
2022-08-11T04:55:03.414Z,0.000000
2022-08-11T04:56:00.541Z,0.000000
2022-08-11T04:57:00.516Z,0.000000
2022-08-11T04:58:00.578Z,0.000000
2022-08-11T04:59:00.501Z,0.000000
2022-08-11T05:00:05.044Z,0.000000
2022-08-11T05:01:00.549Z,0.000000
2022-08-11T05:02:00.717Z,0.000000
2022-08-11T05:03:00.564Z,0.000000
2022-08-11T05:04:00.684Z,0.000000
2022-08-11T05:05:03.533Z,0.000000
2022-08-11T05:06:00.682Z,0.000000
2022-08-11T05:07:00.581Z,0.000000
2022-08-11T05:08:00.853Z,33.750000
2022-08-11T05:09:00.600Z,33.750000
2022-08-11T05:10:04.238Z,33.750000
2022-08-11T05:11:00.603Z,22.500000
2022-08-11T05:12:01.696Z,22.500000
2022-08-11T05:13:00.608Z,22.500000
2022-08-11T05:14:00.723Z,22.500000
2022-08-11T05:15:03.467Z,22.500000
2022-08-11T05:16:00.736Z,22.500000
2022-08-11T05:17:00.641Z,22.500000
2022-08-11T05:18:00.770Z,0.000000
2022-08-11T05:19:00.650Z,0.000000
2022-08-11T05:20:05.465Z,0.000000
2022-08-11T05:21:04.837Z,0.000000
2022-08-11T05:22:00.793Z,0.000000
2022-08-11T05:23:00.699Z,0.000000
2022-08-11T05:24:00.827Z,56.250000
2022-08-11T05:25:03.757Z,56.250000
2022-08-11T05:26:45.427Z,11.250000
2022-08-11T05:27:00.746Z,11.250000
2022-08-11T05:28:00.834Z,11.250000
2022-08-11T05:29:00.754Z,11.250000
2022-08-11T05:30:04.071Z,11.250000
2022-08-11T05:31:00.772Z,11.250000
2022-08-11T05:32:00.862Z,11.250000
2022-08-11T05:33:02.339Z,0.000000
2022-08-11T05:34:00.887Z,0.000000
2022-08-11T05:35:03.773Z,0.000000
2022-08-11T05:36:03.147Z,33.750000
2022-08-11T05:37:23.835Z,33.750000
2022-08-11T05:38:00.849Z,33.750000
2022-08-11T05:39:00.816Z,33.750000
2022-08-11T05:40:04.029Z,33.750000
2022-08-11T05:41:00.841Z,33.750000
2022-08-11T05:42:00.900Z,33.750000
2022-08-11T05:43:00.837Z,67.500000
2022-08-11T05:44:21.114Z,67.500000
2022-08-11T05:45:03.832Z,67.500000
2022-08-11T05:46:03.535Z,101.250000
2022-08-11T05:47:00.869Z,101.250000
2022-08-11T05:48:00.962Z,11.250000
2022-08-11T05:49:00.888Z,11.250000
2022-08-11T05:50:05.736Z,11.250000
2022-08-11T05:51:00.918Z,0.000000
2022-08-11T05:52:05.691Z,0.000000
2022-08-11T05:53:00.909Z,0.000000
2022-08-11T05:54:01.001Z,0.000000
2022-08-11T05:55:06.436Z,0.000000
2022-08-11T05:56:02.876Z,0.000000
2022-08-11T05:57:00.952Z,45.000000
2022-08-11T05:58:01.024Z,45.000000
2022-08-11T05:59:00.955Z,56.250000
2022-08-11T06:00:04.500Z,56.250000
2022-08-11T06:01:00.969Z,11.250000
2022-08-11T06:02:01.132Z,11.250000
2022-08-11T06:03:01.006Z,11.250000
2022-08-11T06:04:01.069Z,11.250000
2022-08-11T06:05:03.732Z,11.250000
2022-08-11T06:06:01.085Z,11.250000
2022-08-11T06:07:01.007Z,0.000000
2022-08-11T06:08:01.066Z,0.000000
2022-08-11T06:09:01.047Z,0.000000
2022-08-11T06:10:04.429Z,0.000000
2022-08-11T06:11:01.035Z,11.250000
2022-08-11T06:12:01.139Z,11.250000
2022-08-11T06:13:01.161Z,11.250000
2022-08-11T06:14:01.116Z,33.750000
2022-08-11T06:15:05.683Z,33.750000
2022-08-11T06:16:06.215Z,33.750000
2022-08-11T06:17:01.078Z,45.000000
2022-08-11T06:18:01.194Z,45.000000
2022-08-11T06:19:01.106Z,45.000000
2022-08-11T06:20:07.072Z,11.250000
2022-08-11T06:21:01.156Z,11.250000
2022-08-11T06:22:01.167Z,11.250000
2022-08-11T06:23:01.138Z,11.250000
2022-08-11T06:24:01.220Z,22.500000
2022-08-11T06:25:04.722Z,22.500000
2022-08-11T06:26:00.210Z,22.500000
2022-08-11T06:27:13.331Z,0.000000
2022-08-11T06:28:00.247Z,0.000000
2022-08-11T06:29:00.189Z,0.000000
2022-08-11T06:30:04.568Z,0.000000
2022-08-11T06:31:00.208Z,0.000000
2022-08-11T06:32:00.292Z,0.000000
2022-08-11T06:33:00.244Z,0.000000
2022-08-11T06:34:00.295Z,56.250000
2022-08-11T06:35:03.184Z,56.250000
2022-08-11T06:36:00.328Z,56.250000
2022-08-11T06:37:00.232Z,78.750000
2022-08-11T06:38:00.310Z,78.750000
2022-08-11T06:39:00.281Z,78.750000
2022-08-11T06:40:03.630Z,90.000000
2022-08-11T06:41:00.262Z,90.000000
2022-08-11T06:42:00.379Z,33.750000
2022-08-11T06:43:00.278Z,33.750000
2022-08-11T06:44:05.105Z,33.750000
2022-08-11T06:45:03.218Z,56.250000
2022-08-11T06:46:00.375Z,56.250000
2022-08-11T06:47:00.295Z,56.250000
2022-08-11T06:48:00.441Z,56.250000
2022-08-11T06:49:00.340Z,56.250000
2022-08-11T06:50:03.596Z,11.250000
2022-08-11T06:51:00.409Z,11.250000
2022-08-11T06:52:01.644Z,67.500000
2022-08-11T06:53:00.366Z,67.500000
2022-08-11T06:54:04.870Z,67.500000
2022-08-11T06:55:03.102Z,56.250000
2022-08-11T06:56:00.481Z,56.250000
2022-08-11T06:57:28.931Z,67.500000
2022-08-11T06:58:00.468Z,67.500000
2022-08-11T06:59:00.418Z,67.500000
2022-08-11T07:00:03.842Z,11.250000
2022-08-11T07:01:00.425Z,11.250000
2022-08-11T07:02:00.603Z,11.250000
2022-08-11T07:03:00.480Z,11.250000
2022-08-11T07:04:00.522Z,11.250000
2022-08-11T07:05:03.454Z,11.250000
2022-08-11T07:06:00.549Z,11.250000
2022-08-11T07:07:00.475Z,45.000000
2022-08-11T07:08:32.977Z,45.000000
2022-08-11T07:09:00.522Z,11.250000
2022-08-11T07:10:04.160Z,11.250000
2022-08-11T07:11:00.508Z,11.250000
2022-08-11T07:12:00.593Z,11.250000
2022-08-11T07:13:00.521Z,11.250000
2022-08-11T07:14:00.572Z,33.750000
2022-08-11T07:15:03.385Z,33.750000
2022-08-11T07:16:12.599Z,33.750000
2022-08-11T07:17:00.561Z,67.500000
2022-08-11T07:18:00.622Z,67.500000
2022-08-11T07:19:00.567Z,56.250000
2022-08-11T07:20:05.038Z,56.250000
2022-08-11T07:21:02.429Z,56.250000
2022-08-11T07:22:03.536Z,56.250000
2022-08-11T07:23:00.577Z,56.250000
2022-08-11T07:24:00.677Z,56.250000
2022-08-11T07:25:03.807Z,67.500000
2022-08-11T07:26:00.690Z,67.500000
2022-08-11T07:27:00.614Z,33.750000
2022-08-11T07:28:00.681Z,33.750000
2022-08-11T07:29:00.620Z,22.500000
2022-08-11T07:30:05.113Z,22.500000
2022-08-11T07:31:00.624Z,22.500000
2022-08-11T07:32:00.730Z,22.500000
2022-08-11T07:33:00.654Z,22.500000
2022-08-11T07:34:05.052Z,22.500000
2022-08-11T07:35:03.506Z,22.500000
2022-08-11T07:36:00.723Z,22.500000
2022-08-11T07:37:00.672Z,22.500000
2022-08-11T07:38:02.107Z,11.250000
2022-08-11T07:39:00.682Z,11.250000
2022-08-11T07:40:03.806Z,78.750000
2022-08-11T07:41:00.694Z,78.750000
2022-08-11T07:42:00.795Z,78.750000
2022-08-11T07:43:00.707Z,78.750000
2022-08-11T07:44:00.770Z,78.750000
2022-08-11T07:45:03.639Z,45.000000
2022-08-11T07:46:00.786Z,45.000000
2022-08-11T07:47:00.938Z,45.000000
2022-08-11T07:48:00.824Z,45.000000
2022-08-11T07:49:00.746Z,45.000000
2022-08-11T07:50:04.136Z,45.000000
2022-08-11T07:51:00.768Z,45.000000
2022-08-11T07:52:00.851Z,11.250000
2022-08-11T07:53:00.774Z,11.250000
2022-08-11T07:54:07.777Z,11.250000
2022-08-11T07:55:03.471Z,78.750000
2022-08-11T07:56:00.894Z,78.750000
2022-08-11T07:57:09.344Z,78.750000
2022-08-11T07:58:15.734Z,56.250000
2022-08-11T07:59:06.326Z,56.250000
2022-08-11T08:00:05.434Z,45.000000
2022-08-11T08:01:01.469Z,45.000000
2022-08-11T08:02:01.069Z,45.000000
2022-08-11T08:03:00.839Z,67.500000
2022-08-11T08:04:00.904Z,67.500000
2022-08-11T08:05:04.341Z,67.500000
2022-08-11T08:06:00.975Z,67.500000
2022-08-11T08:07:00.884Z,67.500000
2022-08-11T08:08:00.970Z,22.500000
2022-08-11T08:09:00.894Z,22.500000
2022-08-11T08:10:03.853Z,45.000000
2022-08-11T08:11:00.897Z,45.000000
2022-08-11T08:12:00.972Z,45.000000
2022-08-11T08:13:00.896Z,22.500000
2022-08-11T08:14:01.010Z,22.500000
2022-08-11T08:15:03.797Z,22.500000
2022-08-11T08:16:01.028Z,22.500000
2022-08-11T08:17:00.940Z,22.500000
2022-08-11T08:18:09.745Z,45.000000
2022-08-11T08:19:00.953Z,45.000000
2022-08-11T08:20:04.599Z,45.000000
2022-08-11T08:21:00.975Z,45.000000
2022-08-11T08:22:10.921Z,45.000000
2022-08-11T08:23:00.980Z,11.250000
2022-08-11T08:24:01.090Z,11.250000
2022-08-11T08:25:04.325Z,22.500000
2022-08-11T08:26:01.095Z,22.500000
2022-08-11T08:27:01.018Z,67.500000
2022-08-11T08:28:01.082Z,67.500000
2022-08-11T08:29:01.009Z,67.500000
2022-08-11T08:30:11.718Z,22.500000
2022-08-11T08:31:01.030Z,22.500000
2022-08-11T08:32:01.091Z,22.500000
2022-08-11T08:33:01.085Z,11.250000
2022-08-11T08:34:01.144Z,11.250000
2022-08-11T08:35:03.962Z,67.500000
2022-08-11T08:36:01.139Z,67.500000
2022-08-11T08:37:01.068Z,67.500000
2022-08-11T08:38:01.262Z,67.500000
2022-08-11T08:39:01.088Z,67.500000
2022-08-11T08:40:04.149Z,56.250000
2022-08-11T08:41:01.085Z,56.250000
2022-08-11T08:42:01.179Z,56.250000
2022-08-11T08:43:01.111Z,11.250000
2022-08-11T08:44:21.114Z,11.250000
2022-08-11T08:45:04.176Z,33.750000
2022-08-11T08:46:01.188Z,33.750000
2022-08-11T08:47:01.131Z,33.750000
2022-08-11T08:48:01.201Z,67.500000
2022-08-11T08:49:01.130Z,67.500000
2022-08-11T08:50:05.761Z,67.500000
2022-08-11T08:51:01.168Z,56.250000
2022-08-11T08:52:26.476Z,56.250000
2022-08-11T08:53:01.153Z,56.250000
2022-08-11T08:54:01.257Z,67.500000
2022-08-11T08:55:03.129Z,67.500000
2022-08-11T08:56:00.315Z,67.500000
2022-08-11T08:57:00.195Z,67.500000
2022-08-11T08:58:00.239Z,56.250000
2022-08-11T08:59:00.184Z,56.250000
2022-08-11T09:00:05.146Z,11.250000
2022-08-11T09:01:00.320Z,11.250000
2022-08-11T09:02:01.580Z,11.250000
2022-08-11T09:03:12.471Z,11.250000
2022-08-11T09:04:04.878Z,45.000000
2022-08-11T09:05:03.541Z,45.000000
2022-08-11T09:06:01.631Z,67.500000
2022-08-11T09:07:00.273Z,67.500000
2022-08-11T09:08:00.374Z,67.500000
2022-08-11T09:09:00.294Z,67.500000
2022-08-11T09:10:03.725Z,67.500000
2022-08-11T09:11:00.294Z,56.250000
2022-08-11T09:12:00.396Z,56.250000
2022-08-11T09:13:00.303Z,56.250000
2022-08-11T09:14:05.139Z,90.000000
2022-08-11T09:15:03.133Z,90.000000
2022-08-11T09:16:00.371Z,90.000000
2022-08-11T09:17:00.331Z,90.000000
2022-08-11T09:18:00.401Z,90.000000
2022-08-11T09:19:00.339Z,78.750000
2022-08-11T09:20:03.861Z,78.750000
2022-08-11T09:21:00.366Z,22.500000
2022-08-11T09:22:00.440Z,22.500000
2022-08-11T09:23:41.704Z,22.500000
2022-08-11T09:24:11.450Z,78.750000
2022-08-11T09:25:03.209Z,78.750000
2022-08-11T09:26:00.474Z,90.000000
2022-08-11T09:27:00.400Z,90.000000
2022-08-11T09:28:00.481Z,90.000000
2022-08-11T09:29:00.426Z,67.500000
2022-08-11T09:30:03.967Z,67.500000
2022-08-11T09:31:00.419Z,45.000000
2022-08-11T09:32:00.547Z,45.000000
2022-08-11T09:33:00.449Z,45.000000
2022-08-11T09:34:00.508Z,22.500000
2022-08-11T09:35:03.354Z,22.500000
2022-08-11T09:36:00.534Z,22.500000
2022-08-11T09:37:00.454Z,11.250000
2022-08-11T09:38:01.059Z,11.250000
2022-08-11T09:39:00.480Z,56.250000
2022-08-11T09:40:04.975Z,56.250000
2022-08-11T09:41:00.484Z,56.250000
2022-08-11T09:42:03.406Z,78.750000
2022-08-11T09:43:00.489Z,78.750000
2022-08-11T09:44:04.021Z,22.500000
2022-08-11T09:45:03.793Z,22.500000
2022-08-11T09:46:00.575Z,67.500000
2022-08-11T09:47:00.518Z,67.500000
2022-08-11T09:48:00.578Z,67.500000
2022-08-11T09:49:00.521Z,67.500000
2022-08-11T09:50:03.918Z,67.500000
2022-08-11T09:51:00.566Z,67.500000
2022-08-11T09:52:05.012Z,33.750000
2022-08-11T09:53:36.126Z,33.750000
2022-08-11T09:54:02.856Z,33.750000
2022-08-11T09:55:04.014Z,33.750000
2022-08-11T09:56:00.666Z,33.750000
2022-08-11T09:57:05.077Z,33.750000
2022-08-11T09:58:00.664Z,33.750000
2022-08-11T09:59:00.617Z,67.500000
2022-08-11T10:00:12.467Z,67.500000
2022-08-11T10:01:00.674Z,67.500000
2022-08-11T10:02:00.738Z,45.000000
2022-08-11T10:03:00.642Z,45.000000
2022-08-11T10:04:00.736Z,22.500000
2022-08-11T10:05:03.623Z,22.500000
2022-08-11T10:06:04.521Z,22.500000
2022-08-11T10:07:00.666Z,56.250000
2022-08-11T10:08:00.734Z,56.250000
2022-08-11T10:09:00.680Z,45.000000
2022-08-11T10:10:04.172Z,45.000000
2022-08-11T10:11:00.699Z,67.500000
2022-08-11T10:12:00.769Z,67.500000
2022-08-11T10:13:00.690Z,67.500000
2022-08-11T10:14:31.429Z,90.000000
2022-08-11T10:15:04.932Z,90.000000
2022-08-11T10:16:15.728Z,45.000000
2022-08-11T10:17:00.728Z,45.000000
2022-08-11T10:18:00.848Z,45.000000
2022-08-11T10:19:00.731Z,45.000000
2022-08-11T10:20:05.917Z,45.000000
2022-08-11T10:21:00.765Z,45.000000
2022-08-11T10:22:00.831Z,45.000000
2022-08-11T10:23:00.774Z,45.000000
2022-08-11T10:24:05.757Z,56.250000
2022-08-11T10:25:03.857Z,56.250000
2022-08-11T10:26:00.882Z,56.250000
2022-08-11T10:27:00.841Z,67.500000
2022-08-11T10:28:17.444Z,67.500000
2022-08-11T10:29:12.647Z,45.000000
2022-08-11T10:30:09.240Z,45.000000
2022-08-11T10:31:00.823Z,45.000000
2022-08-11T10:32:04.351Z,78.750000
2022-08-11T10:33:00.850Z,78.750000
2022-08-11T10:34:01.589Z,78.750000
2022-08-11T10:35:03.542Z,78.750000
2022-08-11T10:36:00.979Z,78.750000
2022-08-11T10:37:00.862Z,45.000000
2022-08-11T10:38:07.413Z,45.000000
2022-08-11T10:39:00.894Z,90.000000
2022-08-11T10:40:04.349Z,90.000000
2022-08-11T10:41:00.914Z,90.000000
2022-08-11T10:42:02.786Z,67.500000
2022-08-11T10:43:01.174Z,67.500000
2022-08-11T10:44:03.684Z,78.750000
2022-08-11T10:45:03.781Z,78.750000
2022-08-11T10:46:01.047Z,78.750000
2022-08-11T10:47:00.947Z,56.250000
2022-08-11T10:48:01.053Z,56.250000
2022-08-11T10:49:00.976Z,56.250000
2022-08-11T10:50:05.291Z,22.500000
2022-08-11T10:51:01.008Z,22.500000
2022-08-11T10:52:01.044Z,22.500000
2022-08-11T10:53:01.010Z,22.500000
2022-08-11T10:54:01.066Z,22.500000
2022-08-11T10:55:03.832Z,45.000000
2022-08-11T10:56:01.270Z,45.000000
2022-08-11T10:57:01.026Z,45.000000
2022-08-11T10:58:04.920Z,45.000000
2022-08-11T10:59:03.974Z,45.000000
2022-08-11T11:00:04.352Z,78.750000
2022-08-11T11:01:01.133Z,78.750000
2022-08-11T11:02:01.171Z,90.000000
2022-08-11T11:03:22.103Z,90.000000
2022-08-11T11:04:01.111Z,90.000000
2022-08-11T11:05:04.167Z,90.000000
2022-08-11T11:06:12.925Z,90.000000
2022-08-11T11:07:01.072Z,11.250000
2022-08-11T11:08:01.184Z,11.250000
2022-08-11T11:09:04.007Z,11.250000
2022-08-11T11:10:04.541Z,22.500000
2022-08-11T11:11:01.107Z,22.500000
2022-08-11T11:12:01.196Z,33.750000
2022-08-11T11:13:01.141Z,33.750000
2022-08-11T11:14:01.249Z,33.750000
2022-08-11T11:15:06.798Z,33.750000
2022-08-11T11:16:00.332Z,33.750000
2022-08-11T11:17:00.162Z,11.250000
2022-08-11T11:18:00.557Z,11.250000
2022-08-11T11:19:01.471Z,11.250000
2022-08-11T11:20:00.854Z,22.500000
2022-08-11T11:21:00.849Z,22.500000
2022-08-11T11:22:00.919Z,67.500000
2022-08-11T11:23:00.854Z,67.500000
2022-08-11T11:24:00.991Z,67.500000
2022-08-11T11:25:07.126Z,90.000000
2022-08-11T11:26:00.961Z,78.750000
2022-08-11T11:27:00.893Z,78.750000
2022-08-11T11:28:00.990Z,78.750000
2022-08-11T11:29:00.914Z,78.750000